Kellogg, Minnesota
Current Conditions -  °F | °C
As of 12:14 AM on Monday 22 Dec 2014 (Local Time) from KONA Reporting Station
Haze Haze  
Wind Chill: -1°   Ceiling: 1200
Heat Index:   Visibility: 5mi
Dew Point:   Wind: 10mph
Humidity: 93%   Direction: 160°SSE
Pressure: 29.82"   Gusts: 17mph
Location:  44.31°N, 92°W
Report Text: KONA 220614Z AUTO 16009G15KT 5SM BR OVC012 03/02 A2982 RMK AO2
Loading
Personal Weather Stations






























Interactive Weather Map New forecast layout! Learn more

10-Day Weather Forecast

Advertisements
Track Severe Weather on mobile